Calder, Idaho
Current Conditions -  °F | °C
As of 6:53 AM on Tuesday 21 Oct 2014 (Local Time) from KMLP Reporting Station
Light Rain Light Rain  
Wind Chill: 30°   Ceiling: 100
Heat Index: 35°   Visibility: 0.5mi
Dew Point: 35°   Wind: 6mph
Humidity: 100%   Direction: 300°WNW
Pressure: 29.85"   Gusts: NA
Location:  47.28°N, 116.19°W
Report Text: KMLP 211353Z AUTO 30005KT 1/2SM -RA FG VV001 02/02 A2985 RMK AO2 SLP058 P0001 T00170017
Loading
Personal Weather Stations






























Interactive Weather Map
Tropical Storm Tracking
New forecast layout! Learn more

10-Day Weather Forecast

Advertisements
Track Severe Weather on mobile